Time;durP1;ratioP1;P1;durP2;ratioP2;P2;SDS_P1;SDS_P2;PMS_P1;PMS_P2;Temp;Humidity;BMP_temperature;BMP_pressure;BME280_temperature;BME280_humidity;BME280_pressure;Samples;Min_cycle;Max_cycle;Signal;HPM_P1;HPM_P2
2022/09/20 00:02:56;;;;;;;;;;;8.50;99.90;;;8.01;100.00;96040.06;10440759;28;3335;-72
2022/09/20 00:07:58;;;;;;;;;;;9.00;99.90;;;8.07;100.00;96044.41;10431902;28;3348;-72
2022/09/20 00:13:01;;;;;;;;;;;9.00;99.90;;;8.18;100.00;96039.97;10439597;28;3331;-71
2022/09/20 00:18:04;;;;;;;;;;;9.10;99.90;;;8.23;100.00;96043.53;10436670;28;3320;-73
2022/09/20 00:23:07;;;;;;;;;;;9.10;99.90;;;8.31;100.00;96031.53;10439398;28;3375;-72
2022/09/20 00:28:10;;;;;;;;;;;9.20;99.90;;;8.37;100.00;96035.94;10435758;28;3304;-74
2022/09/20 00:33:13;;;;;;;;;;;9.20;99.90;;;8.36;100.00;96027.09;10434262;28;3336;-73
2022/09/20 00:38:16;;;;;;;;;;;9.40;99.90;;;8.40;100.00;96038.13;10439291;28;3387;-74
2022/09/20 00:43:18;;;;;;;;;;;9.30;99.90;;;8.41;100.00;96031.69;10440068;28;3343;-72
2022/09/20 00:48:21;;;;;;;;;;;9.40;99.90;;;8.35;100.00;96024.63;10436640;28;3387;-73
2022/09/20 00:53:25;;;;;;;;;;;9.30;99.90;;;8.39;100.00;96034.59;10428584;28;3447;-74
2022/09/20 00:58:28;;;;;;;;;;;9.40;99.90;;;8.46;100.00;96031.75;10442953;28;3339;-72
2022/09/20 01:03:32;;;;;;;;;;;9.40;99.90;;;8.48;100.00;96032.28;10436146;28;3281;-72
2022/09/20 01:08:35;;;;;;;;;;;9.50;99.90;;;8.44;100.00;96033.84;10442048;28;3772;-72
2022/09/20 01:13:37;;;;;;;;;;;9.40;99.90;;;8.47;100.00;96033.34;10442643;28;3355;-72
2022/09/20 01:18:43;;;;;;;;;;;9.30;99.90;;;8.36;100.00;96031.63;10449575;28;3352;-72
2022/09/20 01:23:48;;;;;;;;;;;;;;;8.12;100.00;96029.22;10445278;28;3280;-72
2022/09/20 01:28:51;;;;;;;;;;;;;;;8.05;100.00;96025.94;10440857;28;3674;-73
2022/09/20 01:33:54;;;;;;;;;;;;;;;8.04;100.00;96013.59;10438681;28;3385;-72
2022/09/20 01:39:00;;;;;;;;;;;;;;;8.11;100.00;96013.41;10446914;28;3292;-72
2022/09/20 01:44:03;;;;;;;;;;;;;;;8.12;100.00;96009.66;10444854;28;3248;-71
2022/09/20 01:49:07;;;;;;;;;;;;;;;8.07;100.00;96010.41;10446672;28;3313;-72
2022/09/20 01:54:10;;;;;;;;;;;;;;;8.09;100.00;96010.97;10434934;28;3366;-71
2022/09/20 01:59:13;;;;;;;;;;;;;;;8.11;100.00;96008.84;10449410;28;3483;-72
2022/09/20 02:04:33;;;;;;;;;;;;;;;8.16;100.00;96004.63;10442048;28;3461;-73
2022/09/20 02:09:36;;;;;;;;;;;;;;;8.11;100.00;96008.84;10439036;28;3343;-73
2022/09/20 02:14:40;;;;;;;;;;;;;;;8.16;100.00;96004.63;10445431;28;3448;-72
2022/09/20 02:19:43;;;;;;;;;;;;;;;8.11;100.00;96003.50;10444349;28;3369;-72
2022/09/20 02:24:47;;;;;;;;;;;;;;;8.06;100.00;95994.59;10434508;28;3390;-72
2022/09/20 02:29:50;;;;;;;;;;;;;;;8.05;100.00;96004.50;10446702;28;3344;-72
2022/09/20 02:34:55;;;;;;;;;;;;;;;8.05;100.00;96007.19;10442843;28;3320;-72
2022/09/20 02:39:58;;;;;;;;;;;;;;;8.11;100.00;96008.84;10444191;28;3305;-72
2022/09/20 02:45:01;;;;;;;;;;;;;;;8.11;100.00;96006.19;10434880;28;3673;-73
2022/09/20 02:50:06;;;;;;;;;;;;;;;8.18;100.00;96013.22;10446495;28;3344;-72
2022/09/20 02:55:09;;;;;;;;;;;;;;;8.12;100.00;96010.47;10433635;28;3348;-72
2022/09/20 03:00:12;;;;;;;;;;;;;;;8.16;100.00;96012.66;10441253;28;3307;-72
2022/09/20 03:05:15;;;;;;;;;;;;;;;8.10;100.00;96023.31;10417376;28;3268;-73
2022/09/20 03:10:19;;;;;;;;;;;;;;;8.08;100.00;96012.06;10439270;28;3319;-72
2022/09/20 03:15:22;;;;;;;;;;;;;;;8.06;100.00;96016.03;10432654;28;3364;-72
2022/09/20 03:20:25;;;;;;;;;;;;;;;8.04;100.00;96015.47;10440338;28;3364;-71
2022/09/20 03:25:29;;;;;;;;;;;;;;;7.92;100.00;96010.25;10434624;28;3330;-71
2022/09/20 03:30:32;;;;;;;;;;;;;;;7.81;100.00;96016.53;10438713;28;3455;-72
2022/09/20 03:35:37;;;;;;;;;;;;;;;7.73;100.00;96017.78;10433826;28;3435;-71
2022/09/20 03:40:41;;;;;;;;;;;;;;;7.80;100.00;96017.59;10437085;28;3670;-71
2022/09/20 03:45:48;;;;;;;;;;;;;;;7.85;100.00;96025.69;10434234;28;3394;-72
2022/09/20 03:50:53;;;;;;;;;;;;;;;7.88;100.00;96019.03;10435179;28;3404;-76
2022/09/20 03:55:57;;;;;;;;;;;;;;;7.88;100.00;96019.84;10444105;28;3347;-74
2022/09/20 04:01:00;;;;;;;;;;;;;;;7.89;100.00;96024.16;10440532;28;3681;-78
2022/09/20 04:06:03;;;;;;;;;;;;;;;7.89;100.00;96018.78;10434306;28;3303;-74
2022/09/20 04:11:07;;;;;;;;;;;;;;;7.89;100.00;96026.00;10442823;28;3245;-75
2022/09/20 04:16:10;;;;;;;;;;;;;;;7.90;100.00;96028.44;10440190;28;3504;-76
2022/09/20 04:21:13;;;;;;;;;;;;;;;7.93;100.00;96027.94;10438031;28;3716;-74
2022/09/20 04:26:16;;;;;;;;;;;;;;;7.89;100.00;96026.81;10437499;28;3381;-73
2022/09/20 04:31:19;;;;;;;;;;;;;;;7.85;100.00;96036.41;10419275;28;3377;-70
2022/09/20 04:36:29;;;;;;;;;;;;;;;7.86;100.00;96030.78;10437858;28;3388;-72
2022/09/20 04:41:33;;;;;;;;;;;;;;;7.90;100.00;96033.78;10415189;28;3333;-71
2022/09/20 04:46:36;;;;;;;;;;;;;;;7.89;100.00;96037.53;10443669;28;3324;-73
2022/09/20 04:51:40;;;;;;;;;;;;;;;7.92;100.00;96039.69;10451361;28;3347;-72
2022/09/20 04:56:43;;;;;;;;;;;;;;;7.93;100.00;96037.81;10441594;28;3349;-71
2022/09/20 05:01:47;;;;;;;;;;;;;;;7.91;100.00;96043.44;10445678;28;3311;-73
2022/09/20 05:06:51;;;;;;;;;;;;;;;7.96;100.00;96038.16;10439705;28;3343;-70
2022/09/20 05:11:54;;;;;;;;;;;;;;;7.92;100.00;96042.38;10453828;28;3337;-71
2022/09/20 05:16:57;;;;;;;;;;;;;;;7.92;100.00;96041.56;10449403;28;3339;-76
2022/09/20 05:22:01;;;;;;;;;;;;;;;7.84;100.00;96050.84;10446649;28;3269;-74
2022/09/20 05:27:05;;;;;;;;;;;;;;;7.92;100.00;96052.28;10444151;28;3382;-75
2022/09/20 05:32:09;;;;;;;;;;;;;;;8.04;100.00;96060.97;10443988;28;3434;-74
2022/09/20 05:37:13;;;;;;;;;;;;;;;8.11;100.00;96054.38;10436028;28;3279;-71
2022/09/20 05:42:17;;;;;;;;;;;;;;;8.22;100.00;96059.84;10440213;28;3412;-72
2022/09/20 05:47:21;;;;;;;;;;;;;;;8.26;100.00;96061.75;10448555;28;3274;-71
2022/09/20 05:52:24;;;;;;;;;;;;;;;8.33;100.00;96058.88;10442650;28;3388;-72
2022/09/20 05:57:27;;;;;;;;;;;;;;;8.49;100.00;96065.25;10440366;28;3331;-71
2022/09/20 06:02:30;;;;;;;;;;;;;;;8.56;100.00;96072.00;10439042;28;3461;-71
2022/09/20 06:07:33;;;;;;;;;;;;;;;8.61;100.00;96076.63;10443271;28;3406;-72
2022/09/20 06:12:37;;;;;;;;;;;;;;;8.72;100.00;96072.97;10437092;28;3336;-71
2022/09/20 06:17:40;;;;;;;;;;;;;;;8.98;100.00;96083.94;10440487;28;3415;-71
2022/09/20 06:22:43;;;;;;;;;;;;;;;9.07;100.00;96080.50;10447565;28;3540;-72
2022/09/20 06:27:47;;;;;;;;;;;;;;;8.96;100.00;96084.16;10444998;28;3281;-70
2022/09/20 06:32:51;;;;;;;;;;;;;;;8.78;100.00;96089.91;10440929;28;3244;-70
2022/09/20 06:43:15;;;;;;;;;;;;;;;8.48;100.00;96101.13;10441323;28;3288;-72
2022/09/20 06:48:18;;;;;;;;;;;;;;;8.33;100.00;96099.88;10447529;28;3280;-71
2022/09/20 06:53:22;;;;;;;;;;;;;;;8.43;100.00;96104.56;10440790;28;3432;-73
2022/09/20 06:58:25;;;;;;;;;;;;;;;8.30;100.00;96112.97;10433261;28;3268;-73
2022/09/20 07:03:30;;;;;;;;;;;;;;;8.16;100.00;96107.19;10435813;28;3331;-72
2022/09/20 07:08:33;;;;;;;;;;;;;;;8.21;100.00;96109.13;10438713;28;3268;-75
2022/09/20 07:13:37;;;;;;;;;;;;;;;8.30;100.00;96107.59;10439687;28;3487;-73
2022/09/20 07:18:40;;;;;;;;;;;;;;;8.37;100.00;96113.59;10435313;28;3319;-71
2022/09/20 07:23:44;;;;;;;;;;;;;;;8.37;100.00;96118.97;10445216;28;3340;-72
2022/09/20 07:28:48;;;;;;;;;;;;;;;8.54;100.00;96124.25;10443032;28;3348;-77
2022/09/20 07:33:51;;;;;;;;;;;;;;;8.81;100.00;96118.88;10436494;28;3654;-72
2022/09/20 07:38:56;;;;;;;;;;;;;;;9.02;100.00;96119.88;10438678;28;3033;-73
2022/09/20 07:44:19;;;;;;;;;;;;;;;8.66;100.00;96127.59;10419394;28;3012;-73
2022/09/20 07:49:23;;;;;;;;;;;;;;;8.51;100.00;96132.78;10440461;28;3070;-74
2022/09/20 07:54:30;;;;;;;;;;;;;;;8.23;100.00;96144.47;10441515;28;2956;-76
2022/09/20 07:59:33;;;;;;;;;;;;;;;8.19;100.00;96140.69;10430129;28;3020;-73
2022/09/20 08:04:36;;;;;;;;;;;;;;;8.27;100.00;96151.78;10448583;28;2987;-73
2022/09/20 08:09:40;;;;;;;;;;;;;;;8.25;100.00;96145.03;10438983;28;3120;-76
2022/09/20 08:14:43;;;;;;;;;;;;;;;8.66;100.00;96149.84;10431826;28;3022;-73
2022/09/20 08:19:46;;;;;;;;;;;;;;;9.09;100.00;96145.41;10447532;28;3178;-72
2022/09/20 08:24:50;;;;;;;;;;;;;;;9.36;100.00;96148.06;10440749;28;3125;-72
2022/09/20 08:29:56;;;;;;;;;;;;;;;9.68;100.00;96147.22;10448419;28;3435;-73
2022/09/20 08:34:59;;;;;;;;;;;;;;;10.15;100.00;96154.47;10441417;28;3082;-73
2022/09/20 08:40:02;;;;;;;;;;;;;;;10.40;100.00;96137.69;10427232;28;3150;-73
2022/09/20 08:45:05;;;;;;;;;;;;;;;10.70;100.00;96145.84;10443583;28;2994;-74
2022/09/20 08:50:09;;;;;;;;;;;;;;;10.72;100.00;96141.00;10445095;28;3030;-72
2022/09/20 08:55:15;;;;;;;;;;;;;;;10.68;100.00;96142.59;10441170;28;2986;-72
2022/09/20 09:00:19;;;;;;;;;;;;;;;10.47;100.00;96154.38;10460017;28;3061;-72
2022/09/20 09:05:22;;;;;;;;;;;;;;;10.51;100.00;96147.41;10440082;28;3058;-73
2022/09/20 09:10:25;;;;;;;;;;;;;;;10.90;100.00;96150.47;10442662;28;3162;-74
2022/09/20 09:15:29;;;;;;;;;;;;;;;11.50;100.00;96137.31;10444642;28;2962;-73
2022/09/20 09:20:33;;;;;;;;;;;;;;;11.55;100.00;96140.00;10439946;28;3058;-73
2022/09/20 09:25:37;;;;;;;;;;;;;;;11.38;100.00;96132.19;10444021;28;2998;-73
2022/09/20 09:30:40;;;;;;;;;;;;;;;11.80;100.00;96131.91;10440544;28;3171;-73
2022/09/20 09:35:44;;;;;;;;;;;;;;;12.80;100.00;96122.94;10443205;28;3028;-73
2022/09/20 09:40:47;;;;;;;;;;;;;;;12.43;100.00;96117.97;10424904;28;3119;-74
2022/09/20 09:45:50;;;;;;;;;;;;;;;11.69;100.00;96119.53;10446151;28;3085;-74
2022/09/20 09:50:55;;;;;;;;;;;;;;;12.00;100.00;96122.97;10445575;28;3013;-71
2022/09/20 09:55:59;;;;;;;;;;;;;;;12.09;100.00;96117.84;10450142;28;3099;-73
2022/09/20 10:01:02;;;;;;;;;;;;;;;12.73;100.00;96122.44;10426945;28;3195;-76
2022/09/20 10:06:05;;;;;;;;;;;;;;;11.84;100.00;96116.03;10440081;28;3196;-72
2022/09/20 10:11:09;;;;;;;;;;;;;;;11.52;100.00;96109.06;10445807;28;3085;-73
2022/09/20 10:16:12;;;;;;;;;;;;;;;11.82;100.00;96118.97;10443843;28;3127;-72
2022/09/20 10:21:15;;;;;;;;;;;;;;;11.44;100.00;96111.47;10444417;28;3164;-73
2022/09/20 10:26:21;;;;;;;;;;;;;;;11.44;100.00;96112.28;10439272;28;3083;-73
2022/09/20 10:31:24;;;;;;;;;;;;;;;11.59;100.00;96116.84;10439982;28;3037;-75
2022/09/20 10:36:28;;;;;;;;;;;;;;;11.08;100.00;96114.97;10436063;28;3035;-72
2022/09/20 10:46:52;;;;;;;;;;;;;;;12.02;100.00;96117.31;10444417;28;3107;-74
2022/09/20 10:51:56;;;;;;;;;;;;;;;12.09;100.00;96109.78;10446587;28;3002;-76
2022/09/20 10:57:00;;;;;;;;;;;;;;;11.93;100.00;96114.38;10444893;28;3086;-72
2022/09/20 11:02:03;;;;;;;;;;;;;;;11.80;100.00;96113.03;10449343;28;3054;-72
2022/09/20 11:07:06;;;;;;;;;;;;;;;11.74;100.00;96108.75;10441432;28;3105;-72
2022/09/20 11:12:10;;;;;;;;;;;;;;;11.77;100.00;96100.13;10446732;28;3081;-73
2022/09/20 11:17:13;;;;;;;;;;;;;;;11.83;99.94;96107.16;10443733;28;3102;-71
2022/09/20 11:22:17;;;;;;;;;;;;;;;12.09;94.96;96107.06;10442435;28;3232;-74
2022/09/20 11:27:21;;;;;;;;;;;;;;;12.27;90.22;96116.44;10440086;28;2991;-72
2022/09/20 11:32:24;;;;;;;;;;;;;;;12.29;82.29;96112.38;10432931;28;3042;-72
2022/09/20 11:37:27;;;;;;;;;;;;;;;12.26;82.54;96117.50;10437382;28;3088;-72
2022/09/20 11:42:32;;;;;;;;;;;;;;;13.21;81.48;96101.06;10436590;28;3418;-72
2022/09/20 11:47:35;;;;;;;;;;;;;;;13.47;69.15;96101.66;10427700;28;3014;-72
2022/09/20 11:52:56;;;;;;;;;;;13.90;99.90;;;13.49;73.12;96103.00;10433860;28;3130;-72
2022/09/20 11:57:59;;;;;;;;;;;14.20;99.90;;;13.73;70.76;96102.22;10421216;28;3209;-71
2022/09/20 12:03:02;;;;;;;;;;;14.20;99.90;;;13.83;75.41;96101.34;10438474;28;3003;-71
2022/09/20 12:08:05;;;;;;;;;;;;;;;13.79;70.06;96090.28;10435549;28;3149;-72
2022/09/20 12:13:08;;;;;;;;;;;;;;;13.66;69.75;96096.38;10421364;28;3035;-71
2022/09/20 12:18:14;;;;;;;;;;;;;;;13.84;71.64;96092.13;10439981;28;3077;-72
2022/09/20 12:23:17;;;;;;;;;;;;;;;13.88;72.48;96076.97;10436412;28;3149;-72
2022/09/20 12:28:24;;;;;;;;;;;;;;;14.22;69.33;96079.53;10440295;28;2991;-71
2022/09/20 12:33:27;;;;;;;;;;;;;;;14.00;68.33;96077.38;10444224;28;3054;-71
2022/09/20 12:38:30;;;;;;;;;;;;;;;13.72;68.11;96068.22;10438590;28;3199;-71
2022/09/20 12:43:34;;;;;;;;;;;;;;;13.97;67.53;96065.22;10444958;28;3042;-71
2022/09/20 12:48:37;;;;;;;;;;;;;;;13.92;66.04;96070.69;10441289;28;2998;-72
2022/09/20 12:53:40;;;;;;;;;;;;;;;14.12;66.29;96066.13;10438016;28;3055;-70
2022/09/20 12:58:43;;;;;;;;;;;;;;;13.48;67.13;96063.56;10441453;28;3049;-72
2022/09/20 13:03:47;;;;;;;;;;;;;;;12.97;72.27;96066.66;10434401;28;3030;-72
2022/09/20 13:08:50;;;;;;;;;;;;;;;13.07;71.67;96073.09;10441716;28;3079;-71
2022/09/20 13:13:53;;;;;;;;;;;;;;;13.08;73.15;96067.41;10442569;28;3041;-71
2022/09/20 13:18:56;;;;;;;;;;;;;;;13.22;71.01;96064.88;10443889;28;3069;-70
2022/09/20 13:24:00;;;;;;;;;;;;;;;13.09;70.42;96060.91;10427988;28;3117;-70
2022/09/20 13:29:03;;;;;;;;;;;;;;;13.28;71.28;96058.34;10444538;28;3111;-72
2022/09/20 13:34:06;;;;;;;;;;;;;;;13.11;69.62;96055.25;10445837;28;3135;-72
2022/09/20 13:39:10;;;;;;;;;;;;;;;13.07;68.37;96062.28;10441929;28;3006;-72
2022/09/20 13:44:13;;;;;;;;;;;;;;;12.91;70.12;96064.28;10440946;28;3028;-72
2022/09/20 13:49:19;;;;;;;;;;;;;;;12.85;73.13;96062.72;10435470;28;3177;-72
2022/09/20 13:54:23;;;;;;;;;;;;;;;12.87;71.59;96058.66;10445754;28;3130;-71
2022/09/20 13:59:26;;;;;;;;;;;;;;;12.77;71.77;96057.91;10453362;28;3151;-72
2022/09/20 14:04:29;;;;;;;;;;;;;;;12.60;74.16;96061.00;10438426;28;3194;-71
2022/09/20 14:09:33;;;;;;;;;;;;;;;12.55;72.14;96061.84;10451191;28;3152;-73
2022/09/20 14:14:36;;;;;;;;;;;;;;;12.87;72.28;96060.56;10430357;28;3035;-76
2022/09/20 14:19:39;;;;;;;;;;;;;;;13.02;69.50;96059.63;10432181;28;3073;-71
2022/09/20 14:24:42;;;;;;;;;;;;;;;13.27;67.74;96061.34;10444942;28;3049;-71
2022/09/20 14:29:46;;;;;;;;;;;;;;;13.00;63.18;96054.53;10444668;28;3187;-71
2022/09/20 14:34:49;;;;;;;;;;;;;;;13.03;63.76;96063.94;10438439;28;3050;-70
2022/09/20 14:39:52;;;;;;;;;;;;;;;13.18;62.25;96053.84;10443625;28;2987;-71
2022/09/20 14:44:55;;;;;;;;;;;;;;;13.12;62.65;96054.16;10437755;28;2987;-72
2022/09/20 14:49:59;;;;;;;;;;;;;;;13.13;63.35;96063.88;10430674;28;3110;-71
2022/09/20 14:55:02;;;;;;;;;;;;;;;12.81;63.68;96054.38;10437009;28;2958;-71
2022/09/20 15:00:05;;;;;;;;;;;;;;;12.71;63.74;96054.44;10446500;28;3015;-71
2022/09/20 15:05:09;;;;;;;;;;;;;;;13.25;64.23;96048.94;10438264;28;3038;-71
2022/09/20 15:10:13;;;;;;;;;;;;;;;13.44;57.86;96049.03;10445879;28;3232;-70
2022/09/20 15:15:17;;;;;;;;;;;;;;;13.45;58.38;96053.34;10439414;28;3046;-71
2022/09/20 15:20:21;;;;;;;;;;;;;;;13.43;58.99;96050.13;10433896;28;3022;-70
2022/09/20 15:25:28;;;;;;;;;;;;;;;13.42;57.59;96059.34;10441096;28;2988;-76
2022/09/20 15:30:32;;;;;;;;;;;;;;;13.32;54.97;96059.41;10444017;28;3412;-73
2022/09/20 15:35:35;;;;;;;;;;;;;;;12.99;56.71;96066.41;10432089;28;3049;-72
2022/09/20 15:40:38;;;;;;;;;;;;;;;12.91;56.15;96054.31;10439248;28;3029;-73
2022/09/20 15:45:44;;;;;;;;;;;;;;;12.87;57.94;96071.34;10430688;28;3205;-73
2022/09/20 15:50:48;;;;;;;;;;;;;;;12.96;56.80;96067.75;10436667;28;3030;-72
2022/09/20 15:55:51;;;;;;;;;;;;;;;12.77;59.73;96074.91;10436313;28;2990;-72
2022/09/20 16:00:55;;;;;;;;;;;;;;;12.66;60.83;96079.59;10438695;28;3031;-75
2022/09/20 16:05:59;;;;;;;;;;;;;;;12.49;61.96;96087.22;10436224;28;3087;-75
2022/09/20 16:11:06;;;;;;;;;;;;;;;12.32;62.32;96098.34;10434755;28;3411;-71
2022/09/20 16:16:11;;;;;;;;;;;;;;;12.27;62.65;96092.16;10434076;28;3108;-72
2022/09/20 16:21:15;;;;;;;;;;;;;;;12.09;63.59;96093.59;10441000;28;3042;-71
2022/09/20 16:26:18;;;;;;;;;;;;;;;12.07;65.64;96107.34;10440017;28;3109;-75
2022/09/20 16:31:22;;;;;;;;;;;;;;;11.97;67.03;96103.88;10427756;28;3150;-73
2022/09/20 16:36:25;;;;;;;;;;;;;;;11.85;69.49;96113.06;10438567;28;3003;-71
2022/09/20 16:41:31;;;;;;;;;;;;;;;11.68;70.29;96123.28;10448316;28;3050;-72
2022/09/20 16:46:35;;;;;;;;;;;;;;;11.20;80.54;96130.88;10443548;28;3134;-72
2022/09/20 16:51:40;;;;;;;;;;;;;;;10.83;88.32;96134.59;10445993;28;3039;-72
2022/09/20 16:56:43;;;;;;;;;;;;;;;10.73;91.01;96139.94;10449386;28;3070;-71
2022/09/20 17:01:47;;;;;;;;;;;;;;;10.52;95.98;96149.81;10454293;28;3062;-72
2022/09/20 17:06:50;;;;;;;;;;;;;;;10.42;99.93;96155.16;10444199;28;3039;-72
2022/09/20 17:11:54;;;;;;;;;;;;;;;10.55;92.64;96159.22;10449357;28;3026;-71
2022/09/20 17:16:58;;;;;;;;;;;;;;;10.51;91.19;96164.34;10448345;28;2967;-72
2022/09/20 17:22:01;;;;;;;;;;;;;;;10.48;91.26;96169.41;10426117;28;3066;-73
2022/09/20 17:27:05;;;;;;;;;;;;;;;10.37;91.05;96190.09;10441554;28;3049;-71
2022/09/20 17:32:09;;;;;;;;;;;;;;;10.19;93.78;96188.63;10447773;28;2971;-75
2022/09/20 17:37:12;;;;;;;;;;;;;;;10.22;93.17;96188.09;10438104;28;3010;-74
2022/09/20 17:42:15;;;;;;;;;;;;;;;10.12;94.39;96198.78;10444636;28;3036;-71
2022/09/20 17:47:24;;;;;;;;;;;;;;;10.05;92.65;96203.56;10449785;28;3087;-71
2022/09/20 17:52:27;;;;;;;;;;;;;;;9.95;92.94;96198.13;10442980;28;3033;-74
2022/09/20 17:57:33;;;;;;;;;;;;;;;9.95;93.93;96209.69;10435519;28;3145;-73
2022/09/20 18:02:37;;;;;;;;;;;;;;;9.94;93.59;96212.63;10432555;28;3063;-72
2022/09/20 18:07:50;;;;;;;;;;;;;;;9.96;94.33;96215.88;10439749;28;3061;-72
2022/09/20 18:12:54;;;;;;;;;;;;;;;9.99;93.85;96223.41;10437417;28;3042;-71
2022/09/20 18:17:58;;;;;;;;;;;;;;;9.96;95.67;96235.47;10447134;28;3073;-74
2022/09/20 18:23:01;;;;;;;;;;;;;;;9.90;97.03;96238.38;10441073;28;3109;-75
2022/09/20 18:28:05;;;;;;;;;;;;;;;9.89;96.76;96239.44;10449961;28;3102;-72
2022/09/20 18:33:09;;;;;;;;;;;;;;;9.86;97.26;96248.00;10445837;28;3126;-74
2022/09/20 18:38:16;;;;;;;;;;;;;;;9.79;99.57;96252.78;10423753;28;3076;-73
2022/09/20 18:43:19;;;;;;;;;;;;;;;9.76;98.17;96256.81;10436977;28;3114;-71
2022/09/20 18:48:22;;;;;;;;;;;;;;;9.69;100.00;96251.66;10432732;28;2995;-71
2022/09/20 18:53:26;;;;;;;;;;;;;;;9.65;100.00;96258.59;10432547;28;3061;-72
2022/09/20 18:58:29;;;;;;;;;;;;;;;9.73;100.00;96258.16;10448612;28;3007;-71
2022/09/20 19:03:32;;;;;;;;;;;;;;;9.67;100.00;96261.00;10437869;28;2983;-72
2022/09/20 19:08:36;;;;;;;;;;;;;;;9.68;100.00;96259.97;10442124;28;3045;-71
2022/09/20 19:13:39;;;;;;;;;;;;;;;9.65;99.97;96273.88;10439546;28;3050;-71
2022/09/20 19:18:43;;;;;;;;;;;;;;;9.56;100.00;96270.88;10437196;28;3194;-75
2022/09/20 19:23:46;;;;;;;;;;;;;;;9.61;100.00;96280.84;10439330;28;3108;-74
2022/09/20 19:28:49;;;;;;;;;;;;;;;9.69;99.86;96281.19;10438455;28;3026;-75
2022/09/20 19:33:54;;;;;;;;;;;;;;;9.60;100.00;96287.25;10441629;28;3057;-73
2022/09/20 19:38:57;;;;;;;;;;;;;;;9.69;100.00;96289.25;10435718;28;3065;-73
2022/09/20 19:44:03;;;;;;;;;;;;;;;9.61;100.00;96289.72;10438552;28;3146;-73
2022/09/20 19:49:07;;;;;;;;;;;;;;;9.60;100.00;96296.13;10436812;28;2959;-73
2022/09/20 19:54:12;;;;;;;;;;;;;;;9.63;100.00;96303.69;10444566;28;3038;-72
2022/09/20 19:59:16;;;;;;;;;;;;;;;9.63;100.00;96308.22;10442104;28;3399;-72
2022/09/20 20:04:19;;;;;;;;;;;;;;;9.60;100.00;96316.78;10442081;28;3106;-74
2022/09/20 20:09:22;;;;;;;;;;;;;;;9.59;100.00;96315.97;10424687;28;3010;-71
2022/09/20 20:14:26;;;;;;;;;;;;;;;9.39;100.00;96319.25;10449070;28;3063;-71
2022/09/20 20:19:30;;;;;;;;;;;;;;;9.27;100.00;96328.53;10462626;28;3150;-72
2022/09/20 20:24:33;;;;;;;;;;;;;;;9.18;100.00;96322.78;10455924;28;2900;-73
2022/09/20 20:29:36;;;;;;;;;;;;;;;9.08;100.00;96334.19;10451278;28;3057;-72
2022/09/20 20:34:39;;;;;;;;;;;;;;;8.93;100.00;96339.41;10454977;28;3091;-72
2022/09/20 20:39:42;;;;;;;;;;;;;;;8.93;100.00;96342.88;10446924;28;3010;-72
2022/09/20 20:44:47;;;;;;;;;;;;;;;8.77;100.00;96337.56;10448658;28;3124;-72
2022/09/20 20:49:52;;;;;;;;;;;;;;;8.70;100.00;96336.94;10452019;28;3058;-74
2022/09/20 20:54:56;;;;;;;;;;;;;;;8.50;100.00;96349.00;10443904;28;3034;-73
2022/09/20 20:59:59;;;;;;;;;;;;;;;8.30;100.00;96346.00;10452622;28;3166;-78
2022/09/20 21:05:03;;;;;;;;;;;;;;;8.11;100.00;96359.63;10457185;28;3017;-73
2022/09/20 21:10:08;;;;;;;;;;;;;;;7.99;100.00;96358.06;10452586;28;2987;-71
2022/09/20 21:15:11;;;;;;;;;;;;;;;7.91;100.00;96356.63;10452406;28;3058;-71
2022/09/20 21:20:14;;;;;;;;;;;;;;;7.87;100.00;96366.19;10452260;28;3027;-72
2022/09/20 21:25:18;;;;;;;;;;;;;;;7.74;100.00;96372.66;10447101;28;3070;-71
2022/09/20 21:30:21;;;;;;;;;;;;;;;7.76;100.00;96375.06;10447738;28;3033;-70
2022/09/20 21:35:25;;;;;;;;;;;;;;;7.70;100.00;96376.03;10448020;28;3007;-70
2022/09/20 21:40:28;;;;;;;;;;;;;;;7.76;100.00;96375.06;10455731;28;3054;-70
2022/09/20 21:45:32;;;;;;;;;;;;;;;7.58;100.00;96368.91;10443048;28;3103;-76
2022/09/20 21:50:35;;;;;;;;;;;8.90;99.90;;;7.45;100.00;96379.91;10445377;28;3061;-70
2022/09/20 21:55:37;;;;;;;;;;;8.40;99.90;;;7.28;100.00;96374.47;10449892;28;2998;-71
2022/09/20 22:00:43;;;;;;;;;;;;;;;7.16;100.00;96378.25;10440178;28;3006;-70
2022/09/20 22:05:47;;;;;;;;;;;;;;;7.08;100.00;96378.63;10443645;28;2959;-68
2022/09/20 22:10:50;;;;;;;;;;;;;;;7.05;100.00;96385.22;10429212;28;3058;-70
2022/09/20 22:15:54;;;;;;;;;;;;;;;6.99;100.00;96384.31;10441965;28;3037;-70
2022/09/20 22:20:57;;;;;;;;;;;;;;;6.92;100.00;96383.63;10440450;28;3002;-71
2022/09/20 22:26:01;;;;;;;;;;;;;;;6.87;100.00;96378.19;10445456;28;3075;-70
2022/09/20 22:31:04;;;;;;;;;;;7.90;99.90;;;6.74;100.00;96383.78;10436003;28;3150;-70
2022/09/20 22:36:07;;;;;;;;;;;;;;;6.68;100.00;96380.19;10435321;28;3098;-70
2022/09/20 22:41:11;;;;;;;;;;;;;;;6.68;100.00;96379.34;10444447;28;2993;-69
2022/09/20 22:46:14;;;;;;;;;;;;;;;6.59;100.00;96381.59;10438282;28;3045;-69
2022/09/20 22:51:17;;;;;;;;;;;7.70;99.90;;;6.49;100.00;96374.16;10439714;28;3081;-70
2022/09/20 22:56:20;;;;;;;;;;;7.80;99.90;;;6.47;100.00;96376.25;10441436;28;2967;-69
2022/09/20 23:01:24;;;;;;;;;;;;;;;6.42;100.00;96380.66;10447648;28;3018;-69
2022/09/20 23:06:37;;;;;;;;;;;;;;;6.33;100.00;96372.19;10439388;28;3195;-70
2022/09/20 23:11:41;;;;;;;;;;;;;;;6.25;100.00;96369.88;10445617;28;3113;-71
2022/09/20 23:16:44;;;;;;;;;;;;;;;6.18;100.00;96369.97;10437472;28;3210;-69
2022/09/20 23:21:48;;;;;;;;;;;;;;;6.13;100.00;96367.19;10417799;28;3082;-71
2022/09/20 23:26:51;;;;;;;;;;;;;;;6.09;100.00;96371.34;10434631;28;3128;-69
2022/09/20 23:31:54;;;;;;;;;;;;;;;5.96;100.00;96369.72;10441692;28;3046;-69
2022/09/20 23:36:57;;;;;;;;;;;7.20;99.90;;;5.91;100.00;96376.78;10437453;28;2990;-71
2022/09/20 23:42:01;;;;;;;;;;;;;;;5.80;100.00;96383.69;10442147;28;3058;-70
2022/09/20 23:47:04;;;;;;;;;;;;;;;5.84;100.00;96392.03;10438392;28;3098;-68
2022/09/20 23:52:07;;;;;;;;;;;;;;;5.81;100.00;96384.50;10430890;28;3070;-69
2022/09/20 23:57:11;;;;;;;;;;;;;;;5.89;100.00;96376.97;10438940;28;3118;-73
